Time;durP1;ratioP1;P1;durP2;ratioP2;P2;SDS_P1;SDS_P2;PMS_P1;PMS_P2;Temp;Humidity;BMP_temperature;BMP_pressure;BME280_temperature;BME280_humidity;BME280_pressure;Samples;Min_cycle;Max_cycle;Signal;HPM_P1;HPM_P2
2021/08/01 00:01:01;;;;;;;4.38;3.25;;;;;;;21.16;76.16;94847.47;5056740;28;20225;-89
2021/08/01 00:06:24;;;;;;;4.20;3.15;;;;;;;21.03;74.94;94848.75;5057502;28;20263;-87
2021/08/01 00:08:54;;;;;;;5.88;2.97;;;;;;;21.02;75.19;94849.81;5072384;28;20283;-89
2021/08/01 00:11:21;;;;;;;3.88;3.20;;;;;;;20.87;75.71;94851.59;5072944;28;20266;-88
2021/08/01 00:14:41;;;;;;;39.13;35.22;;;;;;;20.93;75.74;94850.59;5072645;28;20579;-87
2021/08/01 00:17:08;;;;;;;7.20;5.50;;;;;;;20.81;76.53;94845.56;5067128;28;20233;-87
2021/08/01 00:19:43;;;;;;;5.38;4.10;;;;;;;20.78;77.12;94855.78;5072451;28;20262;-87
2021/08/01 00:22:12;;;;;;;4.35;3.22;;;;;;;20.87;76.46;94854.22;5072064;28;20220;-87
2021/08/01 00:25:08;;;;;;;3.97;3.22;;;;;;;20.91;75.27;94863.94;5071774;28;20255;-89
2021/08/01 00:27:40;;;;;;;3.70;2.90;;;;;;;20.97;75.68;94857.63;5059504;28;20197;-85
2021/08/01 00:30:12;;;;;;;3.40;2.78;;;;;;;20.89;77.20;94866.00;5051589;28;20248;-87
2021/08/01 00:32:39;;;;;;;4.38;2.97;;;;;;;20.94;76.28;94860.78;5051470;28;20220;-87
2021/08/01 00:35:07;;;;;;;5.57;3.85;;;;;;;20.93;75.34;94864.44;5051160;28;20369;-87
2021/08/01 00:37:35;;;;;;;4.82;2.90;;;;;;;20.87;76.23;94865.47;5051310;28;20201;-89
2021/08/01 00:40:02;;;;;;;3.53;3.22;;;;;;;20.86;76.65;94868.34;5051312;28;20255;-87
2021/08/01 00:42:29;;;;;;;3.30;2.70;;;;;;;20.83;76.47;94861.78;5051173;28;20225;-87
2021/08/01 00:44:56;;;;;;;3.75;3.13;;;;;;;20.84;77.36;94871.22;5051185;28;20814;-87
2021/08/01 00:47:22;;;;;;;4.60;3.20;;;;;;;20.74;79.96;94852.91;5051383;28;20206;-86
2021/08/01 00:49:49;;;;;;;3.97;3.22;;;;;;;20.64;79.98;94848.41;5051316;28;20212;-88
2021/08/01 00:52:18;;;;;;;3.75;3.10;;;;;;;20.56;80.57;94848.91;5051263;28;20216;-86
2021/08/01 00:54:46;;;;;;;4.82;3.20;;;;;;;20.50;82.14;94854.38;5051776;28;20232;-87
2021/08/01 00:57:13;;;;;;;5.88;3.70;;;;;;;20.37;81.87;94858.25;5051592;28;20263;-87
2021/08/01 00:59:40;;;;;;;5.72;3.45;;;;;;;20.32;82.40;94856.38;5051256;28;20201;-89
2021/08/01 01:02:11;;;;;;;9.52;3.50;;;;;;;20.22;83.92;94847.69;5065113;28;20232;-87
2021/08/01 01:04:48;;;;;;;6.90;3.60;;;;;;;20.24;82.20;94858.66;5069560;28;20217;-87
2021/08/01 01:07:21;;;;;;;3.60;3.25;;;;;;;20.21;82.64;94865.19;5071642;28;20219;-87
2021/08/01 01:09:56;;;;;;;3.38;2.90;;;;;;;20.32;81.32;94866.03;5082535;28;20683;-88
2021/08/01 01:12:28;;;;;;;5.03;3.50;;;;;;;20.39;80.41;94871.06;5070548;28;20230;-87
2021/08/01 01:14:57;;;;;;;3.55;3.25;;;;;;;20.38;80.58;94872.91;5070176;28;20217;-88
2021/08/01 01:17:28;;;;;;;5.30;3.25;;;;;;;20.33;80.67;94868.41;5052883;28;20251;-88
2021/08/01 01:20:26;;;;;;;4.57;3.53;;;;;;;20.18;82.35;94870.94;5050584;28;20696;-88
2021/08/01 01:23:15;;;;;;;5.28;3.03;;;;;;;20.02;82.45;94858.81;5017243;28;20704;-87
2021/08/01 01:25:50;;;;;;;4.43;3.53;;;;;;;19.94;82.28;94833.97;5050303;28;20248;-87
2021/08/01 01:28:25;;;;;;;3.72;3.42;;;;;;;19.78;84.40;94814.00;5060584;28;20193;-88
2021/08/01 01:30:59;;;;;;;5.05;3.20;;;;;;;19.71;82.27;94810.03;5070337;28;20196;-87
2021/08/01 01:33:32;;;;;;;6.88;3.78;;;;;;;19.55;82.83;94780.44;5070030;28;20211;-88
2021/08/01 01:36:00;;;;;;;3.92;3.22;;;;;;;19.49;82.55;94756.09;5069941;28;20240;-87
2021/08/01 01:38:28;;;;;;;4.38;3.05;;;;;;;19.37;82.61;94736.44;5070238;28;20710;-88
2021/08/01 01:40:55;;;;;;;6.63;3.20;;;;;;;19.30;83.51;94726.19;5070311;28;20615;-85
2021/08/01 01:43:24;;;;;;;3.83;3.10;;;;;;;19.17;82.36;94729.25;5070007;28;20236;-86
2021/08/01 01:45:52;;;;;;;3.35;3.03;;;;;;;19.00;82.56;94726.78;5070161;28;20603;-87
2021/08/01 01:48:19;;;;;;;7.32;3.20;;;;;;;18.89;83.50;94731.13;5069751;28;20216;-87
2021/08/01 01:50:46;;;;;;;4.72;3.05;;;;;;;18.82;84.91;94740.22;5070202;28;20270;-87
2021/08/01 01:53:13;;;;;;;3.38;3.08;;;;;;;18.76;84.57;94741.19;5069439;28;20192;-87
2021/08/01 01:55:42;;;;;;;3.45;3.10;;;;;;;18.75;83.86;94732.56;5069682;28;20232;-87
2021/08/01 01:58:11;;;;;;;5.13;3.33;;;;;;;18.71;84.92;94720.28;5069848;28;20661;-87
2021/08/01 02:00:37;;;;;;;4.07;3.28;;;;;;;18.64;83.80;94707.47;5069927;28;20571;-87
2021/08/01 02:03:04;;;;;;;5.70;3.17;;;;;;;18.53;85.29;94692.72;5069093;28;20227;-87
2021/08/01 02:05:32;;;;;;;3.72;3.22;;;;;;;18.36;86.40;94677.19;5068761;28;20236;-88
2021/08/01 02:07:59;;;;;;;5.00;3.20;;;;;;;18.44;86.62;94675.97;5069245;28;20234;-89
2021/08/01 02:10:30;;;;;;;5.35;3.50;;;;;;;18.51;86.19;94694.78;5069544;28;20208;-89
2021/08/01 02:12:59;;;;;;;7.97;3.70;;;;;;;18.61;83.94;94705.34;5069307;28;20204;-87
2021/08/01 02:15:32;;;;;;;5.63;3.47;;;;;;;18.55;84.26;94711.50;5068864;28;20294;-87
2021/08/01 02:18:01;;;;;;;3.65;3.33;;;;;;;18.51;83.86;94707.81;5069589;28;20196;-87
2021/08/01 02:20:32;;;;;;;4.90;3.65;;;;;;;18.44;84.52;94700.22;5069605;28;20244;-87
2021/08/01 02:22:59;;;;;;;5.18;3.63;;;;;;;18.49;84.37;94699.44;5069496;28;20592;-87
2021/08/01 02:25:28;;;;;;;4.65;3.38;;;;;;;18.36;84.93;94716.28;5069678;28;20297;-88
2021/08/01 02:27:59;;;;;;;4.32;3.40;;;;;;;18.35;84.59;94730.34;5061763;28;20565;-87
2021/08/01 02:30:30;;;;;;;4.65;3.00;;;;;;;18.27;83.17;94759.47;5049744;28;20201;-87
2021/08/01 02:32:57;;;;;;;3.90;3.50;;;;;;;18.10;84.09;94761.31;5049517;28;20801;-87
2021/08/01 02:35:24;;;;;;;3.92;3.55;;;;;;;18.12;83.45;94769.69;5049445;28;20221;-87
2021/08/01 02:37:53;;;;;;;4.28;3.28;;;;;;;18.30;84.13;94769.38;5048994;28;20201;-87
2021/08/01 02:40:20;;;;;;;6.35;3.25;;;;;;;18.49;84.08;94762.81;5049354;28;20577;-87
2021/08/01 02:42:49;;;;;;;5.07;3.60;;;;;;;18.51;85.61;94746.91;5048843;28;20224;-87
2021/08/01 02:45:18;;;;;;;6.93;3.50;;;;;;;18.54;84.95;94726.38;5049704;28;20708;-87
2021/08/01 02:47:49;;;;;;;4.22;3.10;;;;;;;18.59;84.59;94730.88;5049379;28;20201;-86
2021/08/01 02:50:18;;;;;;;3.45;3.10;;;;;;;18.74;83.49;94736.22;5049598;28;20206;-87
2021/08/01 02:52:53;;;;;;;3.92;3.20;;;;;;;18.70;83.82;94721.31;5048940;28;20605;-87
2021/08/01 02:55:19;;;;;;;4.25;3.50;;;;;;;18.61;84.88;94706.13;5049050;28;20224;-86
2021/08/01 02:57:49;;;;;;;3.72;3.42;;;;;;;18.48;85.01;94697.88;5049254;28;20205;-88
2021/08/01 03:00:19;;;;;;;8.77;3.75;;;;;;;18.39;85.39;94683.72;5049421;28;20236;-87
2021/08/01 03:02:50;;;;;;;4.53;3.45;;;;;;;18.35;84.39;94687.84;5068185;28;20221;-86
2021/08/01 03:05:17;;;;;;;4.22;3.10;;;;;;;18.39;85.67;94701.97;5069096;28;20242;-87
2021/08/01 03:07:45;;;;;;;4.18;3.75;;;;;;;18.26;86.23;94708.38;5069739;28;20205;-88
2021/08/01 03:10:13;;;;;;;6.70;3.72;;;;;;;18.29;85.73;94695.63;5069511;28;20208;-84
2021/08/01 03:12:42;;;;;;;4.85;3.50;;;;;;;18.30;85.97;94706.84;5069335;28;20613;-85
2021/08/01 03:15:09;;;;;;;4.60;3.42;;;;;;;18.27;86.21;94721.16;5068613;28;20308;-86
2021/08/01 03:17:37;;;;;;;3.42;3.08;;;;;;;18.35;85.53;94696.47;5068891;28;20281;-85
2021/08/01 03:20:05;;;;;;;4.72;3.20;;;;;;;18.34;85.30;94681.06;5068540;28;20582;-87
2021/08/01 03:22:31;;;;;;;3.80;3.40;;;;;;;18.39;85.30;94686.34;5068666;28;20224;-89
2021/08/01 03:24:58;;;;;;;5.45;3.25;;;;;;;18.44;83.26;94754.16;5068550;28;20220;-85
2021/08/01 03:27:27;;;;;;;4.55;3.35;;;;;;;18.30;82.63;94827.50;5067273;28;20285;-85
2021/08/01 03:29:53;;;;;;;3.20;2.90;;;;;;;18.12;83.90;94855.66;5052721;28;20201;-87
2021/08/01 03:32:21;;;;;;;6.15;3.58;;;;;;;17.99;86.53;94897.69;5052468;28;20202;-87
2021/08/01 03:34:49;;;;;;;4.90;3.55;;;;;;;17.81;90.25;94764.13;5052279;28;20680;-86
2021/08/01 03:37:15;;;;;;;4.65;3.00;;;;;;;17.99;92.88;94817.75;5052375;28;20258;-87
2021/08/01 03:39:42;;;;;;;2.80;2.28;;;;;;;18.12;91.71;94821.81;5052715;28;20248;-87
2021/08/01 03:42:08;;;;;;;5.05;2.40;;;;;;;18.11;89.22;94815.81;5052721;28;20842;-87
2021/08/01 03:44:35;;;;;;;2.50;2.30;;;;;;;18.19;91.70;94851.88;5052546;28;20225;-87
2021/08/01 03:47:01;;;;;;;2.30;2.10;;;;;;;18.17;87.07;94832.28;5052658;28;20209;-87
2021/08/01 03:49:28;;;;;;;3.20;1.50;;;;;;;18.04;87.51;94822.22;5053071;28;20202;-87
2021/08/01 03:51:55;;;;;;;1.30;1.20;;;;;;;17.97;92.21;94837.25;5053042;28;20213;-88
2021/08/01 03:54:22;;;;;;;1.45;1.30;;;;;;;17.95;91.31;94816.63;5052405;28;20746;-88
2021/08/01 03:56:48;;;;;;;1.35;1.20;;;;;;;17.82;90.56;94820.38;5052403;28;20201;-87
2021/08/01 03:59:15;;;;;;;1.45;1.35;;;;;;;17.77;90.81;94822.91;5052460;28;20205;-87
2021/08/01 04:01:41;;;;;;;1.88;1.40;;;;;;;17.81;91.74;94825.84;5062379;28;20200;-87
2021/08/01 04:04:08;;;;;;;2.13;1.40;;;;;;;17.88;92.88;94832.47;5071780;28;20221;-87
2021/08/01 04:06:37;;;;;;;2.75;1.38;;;;;;;18.00;91.88;94837.56;5071256;28;20233;-86
2021/08/01 04:09:05;;;;;;;1.98;1.75;;;;;;;18.01;91.07;94841.75;5071969;28;20228;-87
2021/08/01 04:11:33;;;;;;;1.40;1.30;;;;;;;18.02;90.21;94850.34;5072249;28;20204;-87
2021/08/01 04:14:00;;;;;;;1.90;1.70;;;;;;;17.99;91.03;94854.22;5084175;28;20540;-86
2021/08/01 04:16:26;;;;;;;1.60;1.50;;;;;;;17.98;90.84;94864.88;5061740;28;20252;-87
2021/08/01 04:18:52;;;;;;;1.52;1.42;;;;;;;17.83;89.36;94874.06;5052024;28;20622;-87
2021/08/01 04:21:19;;;;;;;1.98;1.52;;;;;;;17.91;89.31;94896.28;5052328;28;20205;-87
2021/08/01 04:23:45;;;;;;;3.50;1.60;;;;;;;17.98;89.87;94896.91;5051497;28;20498;-87
2021/08/01 04:26:13;;;;;;;1.70;1.60;;;;;;;18.00;89.87;94894.06;5051670;28;20224;-87
2021/08/01 04:28:40;;;;;;;1.70;1.60;;;;;;;18.09;89.87;94896.00;5065188;28;20197;-87
2021/08/01 04:31:06;;;;;;;1.67;1.58;;;;;;;18.06;90.75;94887.91;5072172;28;20204;-87
2021/08/01 04:33:32;;;;;;;1.60;1.50;;;;;;;18.05;88.10;94896.75;5071673;28;20543;-87
2021/08/01 04:35:59;;;;;;;3.10;1.70;;;;;;;17.98;88.05;94899.53;5071583;28;20224;-86
2021/08/01 04:38:25;;;;;;;1.50;1.40;;;;;;;17.97;88.43;94892.72;5070363;28;20208;-87
2021/08/01 04:40:52;;;;;;;1.63;1.52;;;;;;;18.03;88.42;94901.41;5071137;28;20205;-87
2021/08/01 04:43:19;;;;;;;1.67;1.58;;;;;;;18.04;88.24;94897.78;5070743;28;20240;-88
2021/08/01 04:45:46;;;;;;;2.83;1.58;;;;;;;17.82;89.43;94892.50;5070637;28;20757;-87
2021/08/01 04:48:12;;;;;;;2.15;1.70;;;;;;;17.87;89.18;94901.19;5071067;28;20211;-87
2021/08/01 04:50:39;;;;;;;1.63;1.42;;;;;;;17.83;88.84;94892.28;5070754;28;20706;-86
2021/08/01 04:53:05;;;;;;;1.50;1.40;;;;;;;17.88;88.44;94892.38;5070608;28;20208;-87
2021/08/01 04:55:32;;;;;;;1.60;1.50;;;;;;;17.88;89.58;94891.56;5070537;28;20235;-87
2021/08/01 04:57:58;;;;;;;2.25;1.30;;;;;;;17.89;89.21;94888.72;5070646;28;20200;-87
2021/08/01 05:00:28;;;;;;;1.50;1.40;;;;;;;17.90;90.37;94887.69;5071190;28;20205;-87
2021/08/01 05:02:58;;;;;;;1.20;1.10;;;;;;;17.92;88.97;94890.84;5050741;28;20275;-87
2021/08/01 05:05:25;;;;;;;1.30;1.20;;;;;;;17.88;89.19;94887.16;5050014;28;20256;-87
2021/08/01 05:07:51;;;;;;;1.50;1.35;;;;;;;17.78;89.82;94891.41;5050964;28;20209;-87
2021/08/01 05:10:17;;;;;;;1.63;1.05;;;;;;;17.83;89.53;94907.13;5050876;28;20213;-88
2021/08/01 05:12:44;;;;;;;1.25;1.13;;;;;;;17.81;88.79;94919.56;5051049;28;20193;-87
2021/08/01 05:15:11;;;;;;;1.40;1.30;;;;;;;17.87;87.66;94919.44;5051022;28;20225;-87
2021/08/01 05:17:39;;;;;;;1.20;1.20;;;;;;;17.86;86.78;94925.66;5070620;28;20231;-87
2021/08/01 05:20:07;;;;;;;2.08;1.17;;;;;;;17.91;86.52;94938.75;5071336;28;20200;-87
2021/08/01 05:22:33;;;;;;;1.55;1.20;;;;;;;17.91;86.41;94940.56;5070600;28;20228;-86
2021/08/01 05:24:59;;;;;;;2.85;1.40;;;;;;;17.97;87.39;94941.44;5069814;28;20274;-87
2021/08/01 05:27:26;;;;;;;2.45;1.30;;;;;;;18.02;86.16;94950.13;5067159;28;20189;-87
2021/08/01 05:29:52;;;;;;;1.38;1.30;;;;;;;18.03;85.48;94951.69;5050446;28;20570;-87
2021/08/01 05:32:19;;;;;;;2.35;1.80;;;;;;;18.00;86.38;94967.00;5052324;28;20208;-88
2021/08/01 05:34:46;;;;;;;1.40;1.30;;;;;;;18.01;85.74;94971.19;5050896;28;20286;-87
2021/08/01 05:37:13;;;;;;;1.70;1.50;;;;;;;17.97;85.35;94983.09;5051182;28;20814;-85
2021/08/01 05:39:39;;;;;;;1.60;1.50;;;;;;;17.84;87.94;94985.00;5051233;28;20209;-85
2021/08/01 05:42:06;;;;;;;1.58;1.48;;;;;;;17.89;87.02;94992.13;5050366;28;20825;-85
2021/08/01 05:44:33;;;;;;;2.67;1.40;;;;;;;17.90;85.15;94989.25;5049897;28;20225;-85
2021/08/01 05:46:59;;;;;;;2.45;1.40;;;;;;;17.89;85.85;94982.50;5057876;28;20204;-85
2021/08/01 05:49:25;;;;;;;1.52;1.40;;;;;;;17.93;86.29;94986.19;5069452;28;20201;-85
2021/08/01 05:51:53;;;;;;;2.08;1.40;;;;;;;17.95;86.55;94985.94;5067303;28;20685;-87
2021/08/01 05:58:03;;;;;;;;;;;;;;;;;;;;;
2021/08/01 06:03:37;;;;;;;2.88;2.58;;;;;;;18.05;84.79;94999.16;4999152;28;20231;-89
2021/08/01 06:06:38;;;;;;;1.73;1.63;;;;;;;18.02;84.98;94998.81;5068111;28;20263;-87
2021/08/01 06:09:13;;;;;;;2.00;1.90;;;;;;;17.98;85.68;94995.09;5068011;28;20288;-88
2021/08/01 06:11:56;;;;;;;1.73;1.63;;;;;;;17.92;86.74;95000.22;5068286;28;20204;-87
2021/08/01 06:14:38;;;;;;;2.58;1.80;;;;;;;17.94;87.37;95016.41;5068692;28;20679;-85
2021/08/01 06:20:18;;;;;;;1.90;1.73;;;;;;;17.82;87.19;95025.31;5041306;28;20216;-86
2021/08/01 06:22:44;;;;;;;2.42;1.50;;;;;;;17.85;86.26;95033.47;5049014;28;20205;-88
2021/08/01 06:25:14;;;;;;;1.90;1.70;;;;;;;17.89;86.06;95031.19;5048413;28;20597;-87
2021/08/01 06:27:41;;;;;;;1.77;1.67;;;;;;;17.81;87.47;95026.34;5047422;28;20206;-86
2021/08/01 06:30:09;;;;;;;3.30;1.90;;;;;;;17.81;87.15;95024.53;5050467;28;20212;-89
2021/08/01 06:32:37;;;;;;;1.92;1.83;;;;;;;17.82;87.28;95025.31;5053461;28;20201;-88
2021/08/01 06:35:04;;;;;;;2.58;1.73;;;;;;;17.81;88.46;95026.34;5069030;28;20733;-84
2021/08/01 06:37:30;;;;;;;1.75;1.65;;;;;;;17.88;87.53;95025.19;5067765;28;20193;-86
2021/08/01 06:40:35;;;;;;;1.92;1.70;;;;;;;17.91;85.91;95031.72;5068373;28;20200;-86
2021/08/01 06:43:06;;;;;;;2.00;1.90;;;;;;;17.99;87.22;95028.72;5058072;28;20236;-84
2021/08/01 06:45:52;;;;;;;1.58;1.48;;;;;;;18.03;86.95;95036.88;5068466;28;20228;-85
2021/08/01 06:48:28;;;;;;;2.00;1.80;;;;;;;18.07;88.43;95041.38;5067601;28;20246;-85
2021/08/01 06:51:02;;;;;;;1.80;1.70;;;;;;;18.11;88.30;95041.69;5068417;28;20211;-88
2021/08/01 06:56:20;;;;;;;2.00;1.90;;;;;;;18.27;86.04;95039.09;5067453;28;20213;-87
2021/08/01 06:58:52;;;;;;;3.25;1.92;;;;;;;18.32;83.36;95033.16;5062644;28;20197;-88
2021/08/01 07:01:28;;;;;;;1.90;1.70;;;;;;;18.44;82.91;95039.09;5053147;28;20600;-87
2021/08/01 07:03:57;;;;;;;2.22;1.92;;;;;;;18.50;84.95;95034.72;5058258;28;20212;-87
2021/08/01 07:06:36;;;;;;;2.15;1.95;;;;;;;18.64;84.65;95033.41;5067439;28;20301;-87
2021/08/01 07:09:11;;;;;;;1.90;1.80;;;;;;;18.62;85.82;95043.28;5060205;28;20197;-88
2021/08/01 07:11:38;;;;;;;4.28;2.13;;;;;;;18.69;81.69;95054.31;5060631;28;20203;-89
2021/08/01 07:14:07;;;;;;;2.00;1.90;;;;;;;18.69;83.49;95054.31;5071973;28;20247;-88
2021/08/01 07:16:44;;;;;;;2.03;1.83;;;;;;;18.63;83.91;95050.06;5077283;28;20216;-87
2021/08/01 07:19:12;;;;;;;2.28;2.08;;;;;;;18.66;80.85;95047.00;5051158;28;20212;-84
2021/08/01 07:21:41;;;;;;;2.65;2.15;;;;;;;18.83;81.88;95047.75;5049083;28;20197;-90
2021/08/01 07:24:14;;;;;;;1.90;1.80;;;;;;;19.04;81.92;95048.81;5048506;28;20587;-88
2021/08/01 07:27:02;;;;;;;4.07;2.00;;;;;;;19.28;80.20;95044.91;5058824;28;20234;-87
2021/08/01 07:29:42;;;;;;;2.00;1.83;;;;;;;19.45;78.49;95044.81;5069704;28;20204;-88
2021/08/01 07:32:15;;;;;;;2.10;1.90;;;;;;;19.54;78.52;95051.22;5071175;28;20204;-87
2021/08/01 07:35:01;;;;;;;;;;;;;;;;;;;;;
2021/08/01 08:21:33;;;;;;;12.57;7.35;;;;;;;21.11;65.83;95045.66;5053470;28;20205;-84
2021/08/01 08:27:59;;;;;;;4.50;2.80;;;;;;;21.21;65.50;95059.59;4938798;28;21324;-82
2021/08/01 08:30:37;;;;;;;7.03;3.38;;;;;;;21.25;65.02;95046.78;5032602;28;20206;-82
2021/08/01 08:33:11;;;;;;;5.13;2.20;;;;;;;21.25;65.56;95039.72;5030957;28;20669;-82
2021/08/01 08:35:47;;;;;;;4.75;2.20;;;;;;;21.35;65.24;95039.75;5023496;28;20213;-83
2021/08/01 08:38:29;;;;;;;4.60;2.42;;;;;;;21.42;64.35;95042.13;5031373;28;20261;-83
2021/08/01 08:41:27;;;;;;;2.63;2.10;;;;;;;21.46;64.57;95037.16;5031135;28;20233;-83
2021/08/01 08:44:22;;;;;;;3.45;2.10;;;;;;;21.49;63.74;95041.88;5031550;28;20225;-83
2021/08/01 08:47:13;;;;;;;3.22;2.00;;;;;;;21.51;64.21;95050.28;5024633;28;20217;-83
2021/08/01 08:49:56;;;;;;;3.20;2.17;;;;;;;21.29;62.80;95055.69;4968398;28;20224;-84
2021/08/01 09:07:03;;;;;;;2.10;1.90;;;;;;;20.05;65.54;95067.38;4856696;29;20225;-88
2021/08/01 09:20:15;;;;;;;;;;;;;;;;;;;;;
2021/08/01 09:31:05;;;;;;;2.45;1.80;;;;;;;19.95;67.76;95080.38;4808171;29;20210;-88
2021/08/01 09:41:26;;;;;;;;;;;;;;;;;;;;;
2021/08/01 10:13:10;;;;;;;3.05;2.30;;;;;;;19.75;72.20;95043.59;4886985;29;20666;-87
2021/08/01 10:18:23;;;;;;;2.63;2.25;;;;;;;19.77;73.16;95052.78;4958770;28;20547;-87
2021/08/01 10:20:52;;;;;;;5.45;2.42;;;;;;;19.67;72.21;95052.66;4977168;28;20202;-88
2021/08/01 10:23:24;;;;;;;2.58;2.30;;;;;;;19.73;72.18;95056.13;4986337;28;20226;-88
2021/08/01 10:25:53;;;;;;;2.38;2.10;;;;;;;19.71;71.30;95053.75;4987799;28;20239;-87
2021/08/01 10:28:36;;;;;;;2.20;1.90;;;;;;;19.79;70.61;95055.94;4986689;28;20756;-87
2021/08/01 10:31:13;;;;;;;2.40;2.17;;;;;;;19.83;70.59;95070.06;4987686;28;20203;-87
2021/08/01 10:34:07;;;;;;;2.20;2.00;;;;;;;19.79;72.09;95069.00;4988117;28;20215;-87
2021/08/01 10:36:40;;;;;;;2.55;2.35;;;;;;;19.73;72.51;95069.19;4987692;28;20231;-87
2021/08/01 10:39:28;;;;;;;2.90;2.30;;;;;;;19.66;72.94;95064.94;4987667;28;20211;-87
2021/08/01 10:42:39;;;;;;;3.20;2.33;;;;;;;19.72;73.08;95063.16;4990606;28;20210;-87
2021/08/01 10:48:03;;;;;;;2.53;2.08;;;;;;;19.85;72.14;95062.75;4987736;28;20195;-88
2021/08/01 10:50:58;;;;;;;2.28;2.08;;;;;;;19.92;72.12;95065.19;4988292;28;20218;-87
2021/08/01 10:53:26;;;;;;;2.08;1.98;;;;;;;19.83;71.80;95069.25;4988251;28;20215;-85
2021/08/01 10:56:10;;;;;;;3.28;2.40;;;;;;;20.07;76.68;95062.72;4988792;28;20229;-83
2021/08/01 10:58:37;;;;;;;4.57;2.10;;;;;;;20.44;75.15;95056.75;4988774;28;20266;-82
2021/08/01 11:01:04;;;;;;;3.88;2.40;;;;;;;20.53;73.62;95060.50;4987998;28;20204;-83
2021/08/01 11:03:33;;;;;;;5.03;2.10;;;;;;;20.65;72.20;95059.25;4988609;28;20206;-83
2021/08/01 11:06:00;;;;;;;3.25;2.03;;;;;;;20.78;71.09;95060.66;4969289;28;20761;-83
2021/08/01 11:08:28;;;;;;;5.78;2.22;;;;;;;20.86;70.08;95067.22;4971493;28;20208;-84
2021/08/01 11:11:19;;;;;;;2.20;2.00;;;;;;;20.92;69.51;95067.00;4976743;28;20897;-81
2021/08/01 11:13:53;;;;;;;2.33;1.98;;;;;;;20.89;67.14;95069.34;4984691;28;20196;-83
2021/08/01 11:16:50;;;;;;;2.10;1.90;;;;;;;20.96;68.10;95077.78;4992210;28;20377;-83
2021/08/01 11:24:01;;;;;;;;;;;;;;;;;;;;;
2021/08/01 11:29:11;;;;;;;11.77;3.05;;;;;;;20.35;71.99;95066.88;4284150;26;20292;-84
2021/08/01 11:31:39;;;;;;;10.35;2.33;;;;;;;20.39;72.03;95083.69;5048557;28;20200;-83
2021/08/01 11:34:20;;;;;;;4.20;2.10;;;;;;;20.54;70.81;95078.56;5047758;28;20205;-82
2021/08/01 11:36:47;;;;;;;4.05;2.00;;;;;;;20.80;69.77;95083.94;5027902;28;20229;-83
2021/08/01 11:39:14;;;;;;;1.80;1.70;;;;;;;20.96;68.71;95083.00;5027862;28;20213;-82
2021/08/01 11:41:43;;;;;;;1.90;1.80;;;;;;;20.95;68.92;95076.19;5028289;28;20201;-81
2021/08/01 11:44:14;;;;;;;2.83;1.90;;;;;;;20.88;67.84;95080.84;5027377;28;20290;-83
2021/08/01 11:47:02;;;;;;;2.10;1.63;;;;;;;20.83;67.44;95096.50;5027423;28;20854;-84
2021/08/01 11:49:31;;;;;;;2.10;2.00;;;;;;;20.91;68.05;95094.22;5030825;28;20194;-82
2021/08/01 11:51:59;;;;;;;2.28;2.00;;;;;;;20.99;67.42;95098.19;5033083;28;20213;-83
2021/08/01 11:54:27;;;;;;;4.05;2.00;;;;;;;21.10;67.68;95091.97;5031934;28;20234;-82
2021/08/01 11:56:56;;;;;;;2.20;2.00;;;;;;;21.22;66.91;95089.19;5030992;28;20230;-81
2021/08/01 11:59:24;;;;;;;2.10;1.90;;;;;;;21.12;67.29;95094.34;5031363;28;20241;-81
2021/08/01 12:01:51;;;;;;;2.10;1.75;;;;;;;21.18;65.96;95096.72;5031126;28;20272;-82
2021/08/01 12:04:17;;;;;;;2.35;1.90;;;;;;;21.14;66.87;95097.50;5030786;28;20568;-82
2021/08/01 12:06:44;;;;;;;2.30;1.90;;;;;;;21.26;66.53;95103.34;5030181;28;20893;-82
2021/08/01 12:09:17;;;;;;;2.45;1.73;;;;;;;21.29;66.04;95100.22;5031357;28;20201;-81
2021/08/01 12:11:44;;;;;;;2.53;1.98;;;;;;;21.31;65.77;95103.38;5031447;28;20256;-82
2021/08/01 12:14:11;;;;;;;1.90;1.80;;;;;;;21.32;65.69;95105.75;5030872;28;20237;-82
2021/08/01 12:16:51;;;;;;;3.97;1.98;;;;;;;21.30;64.73;95096.56;5029864;28;20237;-84
2021/08/01 12:19:19;;;;;;;2.03;1.90;;;;;;;21.32;64.57;95100.50;5029283;28;20249;-83
2021/08/01 12:21:46;;;;;;;2.00;1.88;;;;;;;21.32;63.73;95099.72;5030066;28;20202;-83
2021/08/01 12:24:30;;;;;;;2.65;2.05;;;;;;;21.35;63.96;95096.59;5030569;28;20609;-82
2021/08/01 12:27:06;;;;;;;1.83;1.70;;;;;;;21.37;64.27;95097.09;5027630;28;20202;-82
2021/08/01 12:29:35;;;;;;;2.08;1.85;;;;;;;21.43;64.43;95098.69;5031117;28;20224;-81
2021/08/01 12:32:27;;;;;;;2.10;1.90;;;;;;;21.44;64.54;95097.66;5030787;28;20230;-84
2021/08/01 12:35:02;;;;;;;2.25;1.95;;;;;;;21.47;65.09;95105.00;5031291;28;20562;-82
2021/08/01 12:37:29;;;;;;;2.13;1.95;;;;;;;21.46;65.94;95106.06;5030633;28;20202;-84
2021/08/01 12:39:56;;;;;;;1.80;1.70;;;;;;;21.25;63.99;95104.38;5030688;28;20202;-81
2021/08/01 12:42:24;;;;;;;2.10;2.00;;;;;;;21.23;65.31;95109.88;5016542;28;20206;-85
2021/08/01 12:44:56;;;;;;;1.90;1.80;;;;;;;21.28;65.10;95109.13;5026613;28;20697;-84
2021/08/01 12:47:26;;;;;;;2.30;2.10;;;;;;;21.15;64.25;95110.34;5030332;28;20202;-81
2021/08/01 12:49:54;;;;;;;3.15;1.88;;;;;;;21.13;66.35;95103.78;5030664;28;20205;-82
2021/08/01 12:52:23;;;;;;;1.70;1.60;;;;;;;21.27;66.36;95110.94;5031215;28;20657;-82
2021/08/01 12:54:50;;;;;;;2.33;2.20;;;;;;;21.35;65.74;95107.06;5029764;28;20218;-82
2021/08/01 12:57:17;;;;;;;12.25;11.05;;;;;;;21.33;66.18;95101.28;5025299;28;20229;-83
2021/08/01 13:00:07;;;;;;;4.07;3.60;;;;;;;21.22;66.41;95103.06;5027829;28;20206;-82
2021/08/01 13:02:37;;;;;;;3.58;2.60;;;;;;;21.25;66.34;95107.78;5029905;28;20285;-83
2021/08/01 13:05:04;;;;;;;4.35;2.92;;;;;;;21.33;65.85;95102.06;5029737;28;20667;-81
2021/08/01 13:07:30;;;;;;;3.40;3.10;;;;;;;21.35;66.12;95107.84;5029237;28;20885;-83
2021/08/01 13:10:01;;;;;;;2.97;2.78;;;;;;;21.36;65.31;95106.78;5030242;28;20358;-83
2021/08/01 13:12:27;;;;;;;2.55;2.35;;;;;;;21.28;66.05;95107.28;5030010;28;20244;-82
2021/08/01 13:14:54;;;;;;;2.30;2.10;;;;;;;21.29;66.19;95114.09;5029599;28;20225;-82
2021/08/01 13:17:41;;;;;;;2.20;2.00;;;;;;;21.23;66.78;95109.88;5012012;28;20206;-83
2021/08/01 13:20:09;;;;;;;4.80;2.30;;;;;;;21.19;67.14;95114.00;5008923;28;20269;-85
2021/08/01 13:22:36;;;;;;;16.42;3.15;;;;;;;21.02;68.16;95114.19;5016473;28;20198;-85
2021/08/01 13:25:15;;;;;;;2.20;2.00;;;;;;;20.83;68.40;95109.59;5028651;28;20307;-90
2021/08/01 13:50:21;;;;;;;2.55;2.35;;;;;;;19.29;76.70;95100.50;4364412;22;20225;-91
2021/08/01 14:10:33;;;;;;;2.40;2.20;;;;;;;19.37;75.34;95105.31;5002724;28;20202;-88
2021/08/01 14:13:27;;;;;;;2.60;2.40;;;;;;;19.54;75.73;95100.06;5005800;28;20693;-90
2021/08/01 14:16:31;;;;;;;;;;;;;;;;;;;;;
2021/08/01 14:22:25;;;;;;;2.83;2.40;;;;;;;19.73;74.29;95090.88;4987029;28;20221;-89
2021/08/01 14:28:40;;;;;;;3.67;3.08;;;;;;;19.92;76.05;95091.31;4986107;28;20298;-89
2021/08/01 14:31:29;;;;;;;2.53;2.33;;;;;;;19.96;76.29;95100.25;4988928;28;20203;-89
2021/08/01 14:34:09;;;;;;;2.78;2.58;;;;;;;19.94;74.96;95089.25;4988292;28;20196;-88
2021/08/01 14:37:00;;;;;;;2.88;2.67;;;;;;;19.85;75.40;95103.78;4988154;28;20242;-89
2021/08/01 14:42:59;;;;;;;30.65;26.77;;;;;;;19.85;76.35;95115.00;5013701;28;20213;-88
2021/08/01 14:45:34;;;;;;;4.20;3.80;;;;;;;19.84;75.32;95121.28;5027487;28;20226;-89
2021/08/01 14:48:10;;;;;;;3.95;2.55;;;;;;;19.87;73.67;95112.94;5027688;28;20271;-89
2021/08/01 14:50:40;;;;;;;2.33;2.15;;;;;;;19.81;73.29;95108.72;5027891;28;20267;-89
2021/08/01 14:53:20;;;;;;;2.55;2.35;;;;;;;19.72;74.71;95106.78;5027363;28;20704;-88
2021/08/01 14:55:54;;;;;;;3.53;2.20;;;;;;;19.76;74.88;95110.50;5027125;28;20222;-89
2021/08/01 14:58:25;;;;;;;2.45;2.00;;;;;;;19.82;73.80;95109.53;5026156;28;20229;-90
2021/08/01 15:01:11;;;;;;;3.25;2.95;;;;;;;19.84;74.26;95108.22;5007881;28;20297;-88
2021/08/01 15:03:59;;;;;;;2.58;2.30;;;;;;;19.80;72.56;95114.97;5005406;28;20644;-87
2021/08/01 15:06:33;;;;;;;2.58;2.38;;;;;;;19.87;73.07;95114.78;5004853;28;20325;-88
2021/08/01 15:22:52;;;;;;;1.92;1.83;;;;;;;19.82;71.07;95118.13;4910107;29;20213;-86
2021/08/01 15:33:27;;;;;;;2.30;1.75;;;;;;;19.86;70.53;95121.81;4241062;26;20671;-88
2021/08/01 15:36:26;;;;;;;2.10;1.90;;;;;;;19.90;71.02;95122.13;5062381;22;20954;-88
2021/08/01 15:39:23;;;;;;;2.13;2.03;;;;;;;19.84;72.43;95110.81;5030380;28;20855;-89
2021/08/01 15:41:55;;;;;;;1.80;1.70;;;;;;;19.91;72.53;95116.66;5025049;28;20212;-88
2021/08/01 15:44:28;;;;;;;2.58;1.95;;;;;;;19.97;73.65;95117.50;5030858;28;20293;-88